MAPA DE AEROPUERTO

INFORMACIÓN METAR y TAF


Deprecated: The each() function is deprecated. This message will be suppressed on further calls in /home/customer/www/clickair-va.com/public_html/VAM/vam/helpers/get_metar.php on line 20
METAR FOR LEAB
ADDS - METARS form results

(0712 UTC 07 July 2022)
Data provider http://aviationweather.gov/metar/data/
 
METAR text: LEAB 070700Z 03008KT 9999 FEW018 BKN025 19/15 Q1025 NOSIG
Conditions at: LEAB (ALBACETE (CIV/MI, ES) observed 0700 UTC 07 July 2022
Temperature: 19.0°C (66°F)
Dewpoint: 15.0°C (59°F) [RH = 78%]
Pressure (altimeter): 30.27 inches Hg (1025.0 mb)
Winds: from the NNE (30 degrees) at 9 MPH (8 knots; 4.1 m/s)
Visibility: 6 or more miles (10+ km)
Ceiling: 2500 feet AGL
Clouds: few clouds at 1800 feet AGL
broken clouds at 2500 feet AGL
Weather: no significant weather observed at this time

METAR text: LEAB 070630Z 06007KT 9999 FEW017 BKN025 19/16 Q1025 NOSIG
Conditions at: LEAB (ALBACETE (CIV/MI, ES) observed 0630 UTC 07 July 2022
Temperature: 19.0°C (66°F)
Dewpoint: 16.0°C (61°F) [RH = 83%]
Pressure (altimeter): 30.27 inches Hg (1025.0 mb)
Winds: from the ENE (60 degrees) at 8 MPH (7 knots; 3.6 m/s)
Visibility: 6 or more miles (10+ km)
Ceiling: 2500 feet AGL
Clouds: few clouds at 1700 feet AGL
broken clouds at 2500 feet AGL
Weather: no significant weather observed at this time

Forecast for: LEAB (ALBACETE (CIV/MI, ES)
Text: TAF LEAB 070500Z 0706/0806 05007KT 9999 BKN016 TX33/0716Z TN19/0706Z
Forecast period: 0600 UTC 07 July 2022 to 0600 UTC 08 July 2022
Forecast type: FROM: standard forecast or significant change
Winds: from the NE (50 degrees) at 8 MPH (7 knots; 3.6 m/s)
Visibility: 6 or more miles (10+ km)
Ceiling: 1600 feet AGL
Clouds: broken clouds at 1600 feet AGL
Weather: no significant weather forecast for this period
Text: PROB30
Forecast period: 0600 to 0800 UTC 07 July 2022
Forecast type: TEMPORARY: The following changes expected for less than half the time period
Visibility: missing
Ceiling: 1200 feet AGL
Clouds: overcast cloud deck at 1200 feet AGL
Weather: no significant weather forecast for this period